Time;durP1;ratioP1;P1;durP2;ratioP2;P2;SDS_P1;SDS_P2;PMS_P1;PMS_P2;Temp;Humidity;BMP_temperature;BMP_pressure;BME280_temperature;BME280_humidity;BME280_pressure;Samples;Min_cycle;Max_cycle;Signal;HPM_P1;HPM_P2
2021/04/17 00:02:07;;;;;;;15.80;13.05;;;21.90;51.60;;;;;;5095028;28;20052;-70
2021/04/17 00:04:34;;;;;;;17.45;13.55;;;21.90;51.60;;;;;;5095388;28;20644;-70
2021/04/17 00:07:00;;;;;;;14.10;12.32;;;21.90;51.60;;;;;;5095041;28;20043;-70
2021/04/17 00:09:28;;;;;;;15.05;13.55;;;21.90;51.60;;;;;;5077480;28;20035;-61
2021/04/17 00:11:56;;;;;;;15.95;13.27;;;21.90;51.70;;;;;;5077537;28;20036;-61
2021/04/17 00:14:28;;;;;;;16.05;13.18;;;21.90;51.70;;;;;;5095551;28;20035;-62
2021/04/17 00:16:56;;;;;;;13.63;12.23;;;21.90;51.70;;;;;;5095093;28;20026;-62
2021/04/17 00:19:22;;;;;;;14.63;12.07;;;21.90;51.70;;;;;;5095673;28;20016;-62
2021/04/17 00:21:48;;;;;;;12.95;11.55;;;21.90;51.70;;;;;;5095361;28;20028;-62
2021/04/17 00:24:14;;;;;;;13.88;11.60;;;21.90;51.70;;;;;;5076879;28;20023;-62
2021/04/17 00:26:40;;;;;;;12.55;11.18;;;21.90;51.90;;;;;;5095909;28;20120;-62
2021/04/17 00:29:07;;;;;;;12.40;11.18;;;21.90;51.90;;;;;;5094972;28;20072;-61
2021/04/17 00:31:34;;;;;;;12.00;10.40;;;21.90;51.90;;;;;;5089468;28;20365;-62
2021/04/17 00:34:01;;;;;;;14.65;11.25;;;21.80;51.90;;;;;;5094948;28;20047;-62
2021/04/17 00:36:27;;;;;;;12.60;10.85;;;21.80;52.00;;;;;;5095030;28;20373;-62
2021/04/17 00:38:53;;;;;;;11.35;9.85;;;21.80;52.10;;;;;;5095043;28;20021;-61
2021/04/17 00:41:19;;;;;;;13.27;11.23;;;21.80;52.20;;;;;;5076802;28;20035;-62
2021/04/17 00:43:45;;;;;;;13.27;10.73;;;21.80;52.20;;;;;;5075004;28;20367;-62
2021/04/17 00:46:12;;;;;;;14.90;10.30;;;21.80;52.30;;;;;;5074031;28;20478;-62
2021/04/17 00:48:42;;;;;;;10.88;9.75;;;21.80;52.40;;;;;;5095343;28;20036;-62
2021/04/17 00:51:11;;;;;;;13.57;10.73;;;21.80;52.40;;;;;;5076935;28;20039;-62
2021/04/17 00:53:38;;;;;;;11.57;10.38;;;21.80;52.50;;;;;;5075150;28;20057;-62
2021/04/17 00:56:06;;;;;;;10.98;9.20;;;21.80;52.40;;;;;;5076395;28;20059;-61
2021/04/17 00:58:33;;;;;;;11.57;10.07;;;21.80;52.40;;;;;;5094635;28;20020;-62
2021/04/17 01:00:59;;;;;;;10.40;9.40;;;21.70;52.40;;;;;;5094538;28;20028;-62
2021/04/17 01:03:52;;;;;;;11.43;9.05;;;21.70;52.40;;;;;;5094205;28;20053;-62
2021/04/17 01:06:32;;;;;;;14.18;9.27;;;21.70;52.60;;;;;;5093091;28;20035;-62
2021/04/17 01:09:23;;;;;;;12.05;9.18;;;21.70;52.70;;;;;;5076109;28;20538;-61
2021/04/17 01:12:03;;;;;;;12.85;9.45;;;21.70;52.60;;;;;;5076524;28;20477;-61
2021/04/17 01:14:31;;;;;;;11.32;9.77;;;21.70;52.70;;;;;;5072605;28;20158;-62
2021/04/17 01:16:58;;;;;;;10.50;9.43;;;21.70;52.60;;;;;;5093757;28;20085;-61
2021/04/17 01:19:39;;;;;;;10.40;9.30;;;21.70;52.60;;;;;;5072889;28;20029;-62
2021/04/17 01:22:10;;;;;;;10.52;8.40;;;21.70;52.60;;;;;;5056874;28;20107;-61
2021/04/17 01:24:40;;;;;;;9.73;8.73;;;21.70;52.60;;;;;;5076493;28;20030;-62
2021/04/17 01:27:07;;;;;;;10.10;8.90;;;21.70;52.60;;;;;;5094337;28;20515;-62
2021/04/17 01:29:38;;;;;;;10.35;9.18;;;21.70;52.60;;;;;;5090979;28;20485;-62
2021/04/17 01:32:09;;;;;;;9.23;8.10;;;21.70;52.70;;;;;;5094143;28;20024;-62
2021/04/17 01:34:36;;;;;;;10.35;8.55;;;21.70;52.70;;;;;;5057103;28;20136;-62
2021/04/17 01:37:02;;;;;;;11.25;9.23;;;21.70;53.30;;;;;;5074092;28;20056;-63
2021/04/17 01:39:30;;;;;;;11.68;8.75;;;21.70;52.70;;;;;;5073935;28;20024;-61
2021/04/17 01:42:05;;;;;;;9.15;8.23;;;21.70;52.70;;;;;;5073440;28;20024;-62
2021/04/17 01:44:34;;;;;;;11.38;8.48;;;21.70;52.90;;;;;;5073798;28;20887;-61
2021/04/17 01:47:05;;;;;;;9.75;8.40;;;21.70;52.80;;;;;;5073691;28;20029;-62
2021/04/17 01:49:35;;;;;;;10.93;8.73;;;21.70;52.90;;;;;;5073804;28;20059;-61
2021/04/17 01:52:03;;;;;;;9.00;8.07;;;21.70;52.80;;;;;;5073713;28;20469;-62
2021/04/17 01:54:33;;;;;;;9.65;7.65;;;21.70;52.90;;;;;;5073110;28;20269;-61
2021/04/17 01:57:02;;;;;;;11.23;8.30;;;21.70;52.80;;;;;;5073357;28;20036;-62
2021/04/17 01:59:32;;;;;;;8.18;7.47;;;21.70;52.80;;;;;;5073359;28;20031;-61
2021/04/17 02:01:58;;;;;;;8.23;7.43;;;21.70;52.80;;;;;;5073294;28;20032;-61
2021/04/17 02:04:24;;;;;;;9.20;7.78;;;21.70;52.80;;;;;;5073076;28;20135;-62
2021/04/17 02:06:50;;;;;;;11.70;8.10;;;21.70;52.80;;;;;;5073301;28;20025;-62
2021/04/17 02:09:16;;;;;;;11.13;8.13;;;21.70;52.90;;;;;;5072900;28;20723;-62
2021/04/17 02:11:42;;;;;;;8.73;7.80;;;21.60;52.90;;;;;;5073542;28;20047;-62
2021/04/17 02:14:08;;;;;;;8.63;7.72;;;21.70;52.90;;;;;;5073010;28;20482;-61
2021/04/17 02:17:07;;;;;;;7.88;7.07;;;21.70;53.00;;;;;;5073380;28;20035;-61
2021/04/17 02:19:35;;;;;;;8.63;6.40;;;21.60;53.10;;;;;;5073303;28;20024;-61
2021/04/17 02:22:03;;;;;;;9.57;7.63;;;21.70;53.00;;;;;;5073221;28;20035;-62
2021/04/17 02:24:29;;;;;;;9.68;7.40;;;21.70;53.00;;;;;;5073040;28;20039;-62
2021/04/17 02:26:56;;;;;;;9.50;7.10;;;21.60;52.90;;;;;;5073121;28;20021;-62
2021/04/17 02:29:23;;;;;;;10.25;7.72;;;21.60;53.00;;;;;;5071981;28;20025;-62
2021/04/17 02:31:51;;;;;;;9.82;7.32;;;21.60;53.00;;;;;;5072236;28;20024;-61
2021/04/17 02:34:18;;;;;;;8.77;7.13;;;21.60;53.00;;;;;;5088854;28;20048;-61
2021/04/17 02:36:44;;;;;;;8.35;6.97;;;21.60;53.00;;;;;;5092637;28;20035;-61
2021/04/17 02:39:10;;;;;;;8.18;7.38;;;21.60;53.00;;;;;;5093149;28;20032;-61
2021/04/17 02:41:36;;;;;;;9.00;6.32;;;21.60;53.10;;;;;;5092754;28;20020;-61
2021/04/17 02:44:03;;;;;;;7.80;6.40;;;21.60;53.20;;;;;;5092767;28;20046;-61
2021/04/17 02:46:30;;;;;;;9.07;7.43;;;21.60;53.20;;;;;;5092948;28;20093;-62
2021/04/17 02:48:56;;;;;;;8.35;6.78;;;21.60;53.20;;;;;;5074688;28;20020;-61
2021/04/17 02:51:22;;;;;;;8.90;6.85;;;21.60;53.20;;;;;;5092988;28;20036;-61
2021/04/17 02:53:48;;;;;;;7.50;6.28;;;21.60;53.70;;;;;;5091133;28;20043;-61
2021/04/17 02:56:15;;;;;;;8.25;7.22;;;21.60;53.20;;;;;;5092478;28;20043;-61
2021/04/17 02:58:41;;;;;;;6.68;5.88;;;21.60;53.20;;;;;;5092447;28;20020;-61
2021/04/17 03:01:07;;;;;;;9.13;6.82;;;21.60;53.20;;;;;;5092494;28;20016;-61
2021/04/17 03:03:33;;;;;;;7.30;6.18;;;21.60;53.20;;;;;;5074378;28;20028;-70
2021/04/17 03:05:59;;;;;;;7.95;6.35;;;21.60;53.20;;;;;;5092157;28;20039;-70
2021/04/17 03:08:25;;;;;;;12.18;7.55;;;21.60;53.20;;;;;;5092002;28;20031;-70
2021/04/17 03:10:51;;;;;;;8.23;6.40;;;21.60;53.20;;;;;;5092473;28;20028;-70
2021/04/17 03:13:18;;;;;;;7.70;6.15;;;21.60;53.30;;;;;;5092251;28;20474;-70
2021/04/17 03:15:44;;;;;;;9.15;5.82;;;21.50;53.30;;;;;;5092011;28;20020;-71
2021/04/17 03:18:11;;;;;;;7.63;6.18;;;21.60;53.30;;;;;;5095637;28;20115;-70
2021/04/17 03:20:37;;;;;;;6.90;6.18;;;21.60;53.30;;;;;;5096323;28;20144;-70
2021/04/17 03:23:04;;;;;;;6.70;5.60;;;21.60;53.30;;;;;;5096025;28;20102;-70
2021/04/17 03:25:30;;;;;;;9.52;6.75;;;21.60;53.30;;;;;;5096608;28;20099;-69
2021/04/17 03:27:57;;;;;;;7.60;5.82;;;21.60;53.30;;;;;;5096675;28;20028;-70
2021/04/17 03:30:28;;;;;;;7.63;6.00;;;21.60;53.30;;;;;;5095238;28;20043;-70
2021/04/17 03:32:56;;;;;;;7.22;5.75;;;21.60;53.90;;;;;;5095371;28;20044;-69
2021/04/17 03:35:23;;;;;;;7.80;6.15;;;21.50;53.30;;;;;;5089008;28;20041;-69
2021/04/17 03:37:49;;;;;;;8.02;5.97;;;21.50;53.30;;;;;;5076142;28;20107;-69
2021/04/17 03:40:16;;;;;;;6.80;5.90;;;21.50;53.20;;;;;;5081438;28;20058;-70
2021/04/17 03:42:43;;;;;;;9.02;6.28;;;21.60;53.30;;;;;;5095195;28;20028;-71
2021/04/17 03:45:10;;;;;;;6.68;5.88;;;21.50;53.30;;;;;;5094016;28;20032;-70
2021/04/17 03:47:36;;;;;;;7.32;5.10;;;21.50;53.30;;;;;;5095560;28;20069;-70
2021/04/17 03:50:05;;;;;;;8.63;5.55;;;21.50;53.30;;;;;;5074427;28;20390;-70
2021/04/17 03:52:31;;;;;;;7.82;5.93;;;21.50;53.40;;;;;;5084127;28;20376;-69
2021/04/17 03:54:57;;;;;;;6.90;5.50;;;21.60;54.00;;;;;;5093945;28;20031;-70
2021/04/17 03:57:23;;;;;;;7.47;5.50;;;21.50;53.50;;;;;;5075043;28;20040;-70
2021/04/17 03:59:49;;;;;;;7.30;5.68;;;21.50;53.50;;;;;;5075412;28;20017;-70
2021/04/17 04:02:15;;;;;;;8.68;5.70;;;21.50;53.50;;;;;;5079624;28;20374;-70
2021/04/17 04:04:41;;;;;;;8.15;5.90;;;21.50;53.50;;;;;;5075674;28;20466;-70
2021/04/17 04:07:07;;;;;;;8.82;5.55;;;21.50;53.50;;;;;;5076675;28;20082;-70
2021/04/17 04:09:34;;;;;;;7.15;6.00;;;21.50;53.50;;;;;;5075481;28;20461;-70
2021/04/17 04:12:00;;;;;;;6.97;5.40;;;21.50;53.50;;;;;;5076324;28;20024;-70
2021/04/17 04:14:26;;;;;;;7.53;5.88;;;21.50;53.50;;;;;;5075231;28;20028;-70
2021/04/17 04:16:52;;;;;;;7.38;5.55;;;21.50;53.50;;;;;;5091881;28;20039;-70
2021/04/17 04:19:18;;;;;;;6.35;5.63;;;21.50;53.50;;;;;;5095671;28;20079;-70
2021/04/17 04:21:44;;;;;;;7.57;5.13;;;21.50;53.50;;;;;;5059855;28;20059;-70
2021/04/17 04:24:11;;;;;;;10.57;6.18;;;21.50;53.50;;;;;;5075773;28;20024;-70
2021/04/17 04:26:37;;;;;;;5.93;5.22;;;21.50;53.60;;;;;;5095751;28;20039;-70
2021/04/17 04:29:04;;;;;;;10.07;5.63;;;21.50;53.60;;;;;;5095467;28;20103;-70
2021/04/17 04:31:30;;;;;;;7.75;6.10;;;21.50;53.60;;;;;;5055533;28;20081;-70
2021/04/17 04:33:56;;;;;;;7.65;5.35;;;21.50;53.60;;;;;;5070360;28;20040;-70
2021/04/17 04:36:22;;;;;;;7.47;6.22;;;21.50;53.60;;;;;;5076954;28;20043;-71
2021/04/17 04:38:48;;;;;;;8.02;5.95;;;21.50;53.70;;;;;;5094417;28;20039;-61
2021/04/17 04:41:14;;;;;;;8.30;5.70;;;21.50;53.70;;;;;;5093926;28;20050;-61
2021/04/17 04:43:40;;;;;;;9.98;5.72;;;21.50;53.70;;;;;;5094396;28;20028;-63
2021/04/17 04:46:06;;;;;;;7.38;6.20;;;21.50;53.80;;;;;;5094950;28;20028;-61
2021/04/17 04:48:32;;;;;;;7.13;5.43;;;21.50;53.80;;;;;;5095210;28;20107;-61
2021/04/17 04:50:58;;;;;;;6.70;5.75;;;21.50;54.40;;;;;;5094858;28;20513;-61
2021/04/17 04:53:25;;;;;;;7.55;5.55;;;21.50;53.80;;;;;;5095509;28;20036;-61
2021/04/17 04:55:51;;;;;;;8.20;5.55;;;21.50;53.80;;;;;;5094589;28;20024;-62
2021/04/17 04:58:17;;;;;;;6.68;5.10;;;21.50;53.80;;;;;;5076943;28;20030;-62
2021/04/17 05:00:43;;;;;;;7.53;5.53;;;21.50;53.90;;;;;;5094776;28;20020;-61
2021/04/17 05:03:09;;;;;;;7.97;6.00;;;21.40;53.80;;;;;;5094855;28;20074;-61
2021/04/17 05:05:35;;;;;;;7.80;5.90;;;21.50;53.80;;;;;;5094708;28;20485;-61
2021/04/17 05:08:01;;;;;;;8.48;4.88;;;21.40;53.80;;;;;;5094910;28;20133;-61
2021/04/17 05:10:27;;;;;;;7.68;5.25;;;21.40;53.80;;;;;;5094744;28;20107;-61
2021/04/17 05:12:53;;;;;;;5.13;4.63;;;21.40;53.70;;;;;;5094620;28;20419;-61
2021/04/17 05:15:19;;;;;;;6.40;5.80;;;21.40;53.90;;;;;;5094597;28;20024;-62
2021/04/17 05:17:45;;;;;;;9.30;5.72;;;21.40;53.90;;;;;;5076157;28;20115;-61
2021/04/17 05:20:11;;;;;;;14.95;5.88;;;21.40;54.00;;;;;;5094619;28;20138;-61
2021/04/17 05:22:37;;;;;;;7.03;5.45;;;21.40;53.90;;;;;;5094301;28;20063;-62
2021/04/17 05:25:04;;;;;;;6.78;5.63;;;21.40;54.00;;;;;;5076162;28;20024;-62
2021/04/17 05:27:31;;;;;;;6.57;5.65;;;21.40;54.00;;;;;;5094515;28;20043;-61
2021/04/17 05:29:57;;;;;;;6.70;5.63;;;21.40;54.00;;;;;;5093873;28;20028;-61
2021/04/17 05:32:23;;;;;;;9.95;5.90;;;21.40;53.90;;;;;;5094148;28;20039;-62
2021/04/17 05:34:49;;;;;;;7.13;5.63;;;21.40;54.00;;;;;;5094074;28;20713;-61
2021/04/17 05:37:15;;;;;;;7.90;5.25;;;21.40;54.00;;;;;;5094079;28;20016;-61
2021/04/17 05:39:41;;;;;;;7.13;4.88;;;21.30;54.00;;;;;;5075173;28;20028;-61
2021/04/17 05:42:07;;;;;;;9.88;5.25;;;21.40;54.10;;;;;;5076302;28;20039;-61
2021/04/17 05:44:34;;;;;;;6.47;4.32;;;21.40;54.10;;;;;;5076123;28;20032;-61
2021/04/17 05:47:00;;;;;;;6.43;4.90;;;21.30;54.10;;;;;;5093699;28;20024;-61
2021/04/17 05:49:26;;;;;;;7.20;4.80;;;21.30;54.10;;;;;;5093815;28;20466;-61
2021/04/17 05:51:52;;;;;;;7.07;4.55;;;21.30;54.10;;;;;;5093790;28;20066;-61
2021/04/17 05:54:18;;;;;;;6.72;4.93;;;21.30;54.10;;;;;;5093955;28;20028;-62
2021/04/17 05:56:44;;;;;;;5.75;4.60;;;21.30;54.10;;;;;;5093445;28;20499;-61
2021/04/17 05:59:10;;;;;;;10.10;5.45;;;21.30;54.10;;;;;;5093802;28;20024;-62
2021/04/17 06:01:36;;;;;;;7.63;4.93;;;21.30;54.20;;;;;;5093632;28;20020;-61
2021/04/17 06:04:02;;;;;;;8.57;4.65;;;21.30;54.20;;;;;;5092724;28;20055;-62
2021/04/17 06:06:29;;;;;;;5.35;4.57;;;21.20;54.20;;;;;;5089555;28;20032;-61
2021/04/17 06:08:55;;;;;;;9.13;5.45;;;21.30;54.20;;;;;;5093442;28;20351;-61
2021/04/17 06:11:21;;;;;;;7.63;5.20;;;21.30;54.20;;;;;;5092725;28;20115;-61
2021/04/17 06:13:47;;;;;;;7.15;5.40;;;21.30;54.20;;;;;;5093369;28;20043;-60
2021/04/17 06:16:13;;;;;;;11.10;5.57;;;21.30;54.10;;;;;;5092882;28;20099;-61
2021/04/17 06:18:39;;;;;;;9.65;6.50;;;21.30;54.10;;;;;;5093132;28;20024;-61
2021/04/17 06:21:06;;;;;;;12.13;9.73;;;21.30;54.00;;;;;;5093193;28;20044;-61
2021/04/17 06:23:33;;;;;;;14.40;13.05;;;21.20;54.00;;;;;;5093295;28;20020;-61
2021/04/17 06:25:59;;;;;;;13.13;11.35;;;21.30;54.10;;;;;;5091821;28;20031;-61
2021/04/17 06:28:25;;;;;;;17.17;10.93;;;21.20;54.00;;;;;;5074870;28;20032;-62
2021/04/17 06:30:52;;;;;;;16.25;13.77;;;21.20;54.00;;;;;;5079290;28;20041;-62
2021/04/17 06:33:18;;;;;;;15.82;12.95;;;21.20;54.10;;;;;;5072821;28;20078;-61
2021/04/17 06:35:44;;;;;;;21.85;18.65;;;21.20;54.10;;;;;;5090644;28;20040;-61
2021/04/17 06:38:13;;;;;;;26.75;23.50;;;21.20;54.20;;;;;;5092962;28;20032;-61
2021/04/17 06:40:39;;;;;;;31.20;26.85;;;21.20;54.20;;;;;;5092553;28;20027;-61
2021/04/17 06:43:05;;;;;;;33.28;28.48;;;21.20;54.20;;;;;;5092773;28;20107;-61
2021/04/17 06:45:34;;;;;;;36.90;29.55;;;21.20;54.20;;;;;;5092154;28;20031;-61
2021/04/17 06:48:10;;;;;;;327.80;295.58;;;21.20;54.30;;;;;;5092814;28;20059;-61
2021/04/17 06:50:38;;;;;;;435.77;392.13;;;21.20;54.20;;;;;;5092814;28;20032;-60
2021/04/17 06:53:11;;;;;;;107.03;96.00;;;21.20;54.10;;;;;;5092898;28;20036;-61
2021/04/17 06:55:38;;;;;;;94.95;84.82;;;21.20;54.20;;;;;;5092371;28;20031;-69
2021/04/17 06:58:04;;;;;;;95.00;84.80;;;21.20;54.30;;;;;;5092834;28;20411;-63
2021/04/17 07:00:30;;;;;;;97.32;87.05;;;21.20;54.40;;;;;;5092358;28;20416;-62
2021/04/17 07:02:56;;;;;;;88.80;79.40;;;21.20;54.40;;;;;;5092882;28;20024;-63
2021/04/17 07:05:22;;;;;;;81.45;72.72;;;21.20;54.40;;;;;;5092596;28;20515;-62
2021/04/17 07:07:49;;;;;;;86.57;77.70;;;21.20;54.50;;;;;;5074048;28;20032;-63
2021/04/17 07:10:16;;;;;;;76.35;68.53;;;21.20;54.60;;;;;;5092758;28;20035;-63
2021/04/17 07:12:44;;;;;;;78.22;69.93;;;21.20;54.60;;;;;;5092068;28;20028;-63
2021/04/17 07:15:13;;;;;;;66.57;59.45;;;21.20;54.60;;;;;;5072299;28;20070;-63
2021/04/17 07:17:40;;;;;;;67.03;60.05;;;21.30;54.60;;;;;;5077895;28;20028;-63
2021/04/17 07:20:09;;;;;;;58.97;52.85;;;21.30;54.60;;;;;;5092717;28;20415;-63
2021/04/17 07:22:36;;;;;;;61.05;54.45;;;21.30;54.50;;;;;;5092386;28;20016;-63
2021/04/17 07:25:04;;;;;;;56.20;50.35;;;21.40;54.60;;;;;;5092462;28;20074;-64
2021/04/17 07:27:40;;;;;;;53.40;47.88;;;21.40;54.50;;;;;;5092780;28;20042;-63
2021/04/17 07:30:07;;;;;;;51.90;46.40;;;21.40;54.50;;;;;;5074359;28;20036;-63
2021/04/17 07:32:33;;;;;;;54.92;49.13;;;21.40;54.50;;;;;;5092414;28;20036;-63
2021/04/17 07:35:07;;;;;;;52.83;47.45;;;21.50;54.50;;;;;;5091983;28;20032;-63
2021/04/17 07:37:34;;;;;;;50.65;45.45;;;21.50;54.50;;;;;;5091663;28;20107;-63
2021/04/17 07:40:16;;;;;;;45.55;41.03;;;21.50;54.40;;;;;;5092221;28;20048;-63
2021/04/17 07:42:48;;;;;;;46.17;41.45;;;21.50;54.40;;;;;;5091960;28;20020;-59
2021/04/17 07:45:39;;;;;;;27.77;23.98;;;21.60;54.30;;;;;;5092197;28;20442;-58
2021/04/17 07:48:25;;;;;;;21.63;19.42;;;21.60;53.90;;;;;;5077653;28;20028;-58
2021/04/17 07:50:53;;;;;;;17.83;15.98;;;21.60;53.50;;;;;;5091584;28;20484;-58
2021/04/17 07:53:37;;;;;;;19.40;16.88;;;21.60;53.30;;;;;;5092281;28;20424;-58
2021/04/17 07:56:31;;;;;;;14.57;12.15;;;21.60;53.30;;;;;;5091328;28;20036;-58
2021/04/17 07:59:05;;;;;;;14.27;11.23;;;21.60;53.30;;;;;;5073094;28;20033;-59
2021/04/17 08:01:33;;;;;;;12.43;9.45;;;21.60;53.20;;;;;;5091183;28;20032;-60
2021/04/17 08:04:01;;;;;;;10.07;8.25;;;21.60;53.20;;;;;;5076658;28;20012;-59
2021/04/17 08:06:29;;;;;;;8.98;8.07;;;21.60;53.10;;;;;;5095064;28;20051;-59
2021/04/17 08:08:57;;;;;;;10.13;7.93;;;21.50;53.10;;;;;;5095720;28;20063;-59
2021/04/17 08:11:26;;;;;;;8.38;6.53;;;21.60;53.20;;;;;;5077233;28;20458;-59
2021/04/17 08:13:53;;;;;;;7.93;6.47;;;21.60;53.20;;;;;;5095831;28;20068;-60
2021/04/17 08:16:19;;;;;;;7.35;6.60;;;21.60;53.40;;;;;;5095730;28;20024;-60
2021/04/17 08:18:46;;;;;;;7.50;6.20;;;21.50;53.40;;;;;;5090191;28;20040;-59
2021/04/17 08:21:15;;;;;;;12.30;8.88;;;21.60;53.60;;;;;;5094953;28;20024;-59
2021/04/17 08:23:48;;;;;;;14.90;10.23;;;21.50;53.70;;;;;;5095373;28;20055;-59
2021/04/17 08:26:15;;;;;;;10.32;8.48;;;21.60;53.80;;;;;;5077239;28;20473;-59
2021/04/17 08:28:44;;;;;;;16.05;8.65;;;21.60;53.60;;;;;;5095116;28;20024;-59
2021/04/17 08:31:31;;;;;;;13.77;8.38;;;21.60;53.70;;;;;;5095475;28;20028;-59
2021/04/17 08:34:07;;;;;;;7.85;6.90;;;21.60;53.90;;;;;;5095065;28;20048;-59
2021/04/17 08:36:34;;;;;;;11.38;8.70;;;21.70;53.70;;;;;;5095123;28;20481;-60
2021/04/17 08:39:00;;;;;;;13.73;11.05;;;21.70;53.70;;;;;;5075732;28;20020;-60
2021/04/17 08:41:44;;;;;;;14.65;10.70;;;21.70;53.50;;;;;;5094891;28;20047;-59
2021/04/17 08:44:33;;;;;;;11.82;8.85;;;21.70;53.40;;;;;;5094355;28;20123;-60
2021/04/17 08:47:05;;;;;;;14.55;13.05;;;21.80;53.30;;;;;;5086378;28;20114;-58
2021/04/17 08:49:37;;;;;;;13.95;12.35;;;21.80;53.10;;;;;;5094946;28;20028;-58
2021/04/17 08:52:08;;;;;;;14.40;12.90;;;21.80;53.10;;;;;;5091799;28;20092;-65
2021/04/17 08:54:38;;;;;;;13.15;11.90;;;21.80;53.10;;;;;;5092033;28;20043;-68
2021/04/17 08:57:18;;;;;;;12.25;9.63;;;21.90;53.00;;;;;;5093932;28;20509;-68
2021/04/17 08:59:53;;;;;;;10.10;6.85;;;21.90;53.00;;;;;;5094443;28;20073;-69
2021/04/17 09:02:19;;;;;;;7.38;6.45;;;22.00;52.70;;;;;;5085239;28;20028;-70
2021/04/17 09:05:03;;;;;;;6.45;4.63;;;22.00;52.50;;;;;;5096037;28;20024;-69
2021/04/17 09:07:31;;;;;;;5.35;3.53;;;22.00;51.80;;;;;;5099956;28;20093;-70
2021/04/17 09:10:23;;;;;;;7.38;3.28;;;22.00;51.70;;;;;;5093093;28;20020;-69
2021/04/17 09:13:09;;;;;;;4.55;3.90;;;22.00;51.70;;;;;;5095305;28;20040;-68
2021/04/17 09:16:02;;;;;;;5.35;4.43;;;22.10;51.70;;;;;;5075781;28;20044;-69
2021/04/17 09:18:37;;;;;;;5.85;4.30;;;22.10;51.60;;;;;;5093849;28;20056;-69
2021/04/17 09:21:15;;;;;;;5.95;3.90;;;22.10;51.40;;;;;;5094052;28;20026;-67
2021/04/17 09:23:46;;;;;;;7.20;3.60;;;22.10;51.40;;;;;;5093558;28;20430;-69
2021/04/17 09:26:31;;;;;;;6.05;3.55;;;22.20;51.20;;;;;;5093664;28;20032;-69
2021/04/17 09:29:02;;;;;;;4.88;3.40;;;22.20;51.40;;;;;;5093706;28;20036;-70
2021/04/17 09:31:34;;;;;;;7.13;3.60;;;22.20;51.50;;;;;;5093125;28;20331;-69
2021/04/17 09:34:01;;;;;;;8.13;3.92;;;22.20;51.70;;;;;;5093154;28;20044;-69
2021/04/17 09:36:27;;;;;;;4.47;3.50;;;22.20;51.70;;;;;;5092464;28;20032;-69
2021/04/17 09:38:53;;;;;;;7.80;4.05;;;22.30;51.90;;;;;;5092495;28;20020;-69
2021/04/17 09:41:20;;;;;;;10.38;4.20;;;22.30;51.90;;;;;;5094244;28;20043;-68
2021/04/17 09:43:54;;;;;;;10.45;3.40;;;22.30;51.90;;;;;;5094496;28;20112;-68
2021/04/17 09:46:22;;;;;;;7.38;3.53;;;22.30;52.10;;;;;;5094117;28;20498;-68
2021/04/17 09:48:48;;;;;;;9.80;4.63;;;22.30;52.10;;;;;;5094159;28;20032;-68
2021/04/17 09:51:23;;;;;;;12.95;4.75;;;22.30;52.30;;;;;;5094187;28;20028;-68
2021/04/17 09:53:51;;;;;;;8.93;4.35;;;22.30;53.00;;;;;;5094020;28;20036;-68
2021/04/17 09:56:32;;;;;;;6.95;4.43;;;22.40;52.40;;;;;;5093856;28;20100;-67
2021/04/17 09:59:06;;;;;;;7.63;4.43;;;22.30;52.20;;;;;;5093949;28;20487;-67
2021/04/17 10:01:33;;;;;;;8.57;4.82;;;22.40;52.00;;;;;;5093692;28;20024;-67
2021/04/17 10:04:00;;;;;;;9.30;5.00;;;22.40;51.90;;;;;;5093620;28;20078;-68
2021/04/17 10:06:35;;;;;;;7.90;4.55;;;22.40;52.20;;;;;;5085593;28;20199;-68
2021/04/17 10:09:07;;;;;;;5.07;3.47;;;22.40;52.00;;;;;;5073330;28;20106;-66
2021/04/17 10:11:38;;;;;;;3.92;3.17;;;22.40;52.10;;;;;;5073490;28;20067;-67
2021/04/17 10:14:06;;;;;;;8.68;4.15;;;22.30;52.00;;;;;;5073524;28;20479;-67
2021/04/17 10:16:44;;;;;;;5.45;3.08;;;22.40;51.70;;;;;;5073414;28;20042;-66
2021/04/17 10:19:16;;;;;;;3.00;2.35;;;22.30;51.60;;;;;;5073381;28;20017;-69
2021/04/17 10:21:45;;;;;;;7.45;2.70;;;22.30;51.30;;;;;;5073177;28;20078;-66
2021/04/17 10:24:15;;;;;;;14.38;2.85;;;22.30;51.20;;;;;;5073211;28;20444;-66
2021/04/17 10:27:06;;;;;;;6.57;3.03;;;22.30;52.10;;;;;;5078914;28;20028;-67
2021/04/17 10:29:40;;;;;;;4.45;2.25;;;22.30;51.40;;;;;;5093434;28;20043;-68
2021/04/17 10:32:11;;;;;;;5.82;2.60;;;22.30;51.40;;;;;;5093436;28;20175;-72
2021/04/17 10:34:39;;;;;;;7.00;3.60;;;22.30;51.60;;;;;;5056168;28;20056;-69
2021/04/17 10:37:11;;;;;;;37.38;32.58;;;22.40;51.70;;;;;;5072887;28;20068;-68
2021/04/17 10:39:55;;;;;;;40.00;35.67;;;22.50;51.70;;;;;;5054952;28;20501;-69
2021/04/17 10:42:21;;;;;;;24.65;21.17;;;22.50;51.50;;;;;;5073016;28;20103;-69
2021/04/17 10:44:55;;;;;;;17.25;15.45;;;22.60;51.50;;;;;;5072679;28;20051;-69
2021/04/17 10:47:22;;;;;;;18.13;13.88;;;22.70;51.60;;;;;;5055087;28;20052;-69
2021/04/17 10:49:48;;;;;;;15.73;12.95;;;22.70;51.50;;;;;;5072921;28;20024;-69
2021/04/17 10:52:29;;;;;;;12.75;11.40;;;22.70;51.40;;;;;;5072870;28;20029;-69
2021/04/17 10:54:56;;;;;;;8.95;5.13;;;22.80;51.70;;;;;;5072957;28;20036;-69
2021/04/17 10:57:23;;;;;;;8.23;4.05;;;22.80;51.60;;;;;;5072933;28;20466;-70
2021/04/17 10:59:53;;;;;;;9.05;3.55;;;22.80;51.50;;;;;;5072542;28;20028;-69
2021/04/17 11:02:24;;;;;;;5.15;2.83;;;22.80;51.50;;;;;;5072691;28;20032;-69
2021/04/17 11:04:51;;;;;;;7.15;3.15;;;22.80;51.60;;;;;;5072551;28;20466;-69
2021/04/17 11:07:16;;;;;;;7.68;2.83;;;22.80;52.50;;;;;;5072857;28;20111;-69
2021/04/17 11:09:47;;;;;;;6.47;3.22;;;22.80;51.80;;;;;;5072863;28;20441;-69
2021/04/17 11:12:23;;;;;;;;;;;22.80;52.00;;;;;;5055593;28;20024;-69
2021/04/17 11:14:50;;;;;;;8.52;3.13;;;22.70;52.10;;;;;;5054868;28;19908;-68
2021/04/17 11:17:17;;;;;;;8.18;3.88;;;22.80;51.70;;;;;;5072763;28;20367;-69
2021/04/17 11:19:44;;;;;;;4.72;2.58;;;22.80;51.90;;;;;;5072765;28;20471;-69
2021/04/17 11:22:14;;;;;;;6.47;2.45;;;22.80;51.90;;;;;;5072878;28;20021;-69
2021/04/17 11:24:56;;;;;;;6.07;2.60;;;22.70;52.00;;;;;;5072866;28;20032;-72
2021/04/17 11:27:24;;;;;;;13.18;2.45;;;22.70;52.10;;;;;;5073275;28;20370;-71
2021/04/17 11:29:50;;;;;;;3.78;1.80;;;22.70;52.30;;;;;;5072819;28;20035;-70
2021/04/17 11:32:16;;;;;;;8.90;2.72;;;22.80;52.50;;;;;;5054728;28;20347;-70
2021/04/17 11:34:43;;;;;;;8.30;2.85;;;22.80;52.60;;;;;;5073901;28;20036;-70
2021/04/17 11:37:09;;;;;;;4.85;2.67;;;22.90;52.70;;;;;;5093091;28;20032;-70
2021/04/17 11:39:35;;;;;;;4.30;2.10;;;23.00;52.60;;;;;;5096718;28;20028;-70
2021/04/17 11:42:01;;;;;;;5.80;2.60;;;23.20;52.60;;;;;;5096899;28;20110;-71
2021/04/17 11:44:27;;;;;;;5.68;2.97;;;23.30;52.40;;;;;;5097103;28;20422;-69
2021/04/17 11:46:53;;;;;;;4.57;2.30;;;23.50;52.30;;;;;;5078283;28;20024;-70
2021/04/17 11:49:19;;;;;;;6.10;2.60;;;23.60;52.00;;;;;;5096847;28;20058;-71
2021/04/17 11:51:45;;;;;;;4.95;2.50;;;23.70;51.90;;;;;;5096152;28;20390;-70
2021/04/17 11:54:11;;;;;;;8.18;2.88;;;23.80;51.80;;;;;;5076504;28;20087;-70
2021/04/17 11:56:37;;;;;;;7.10;2.28;;;23.90;51.50;;;;;;5096556;28;20039;-69
2021/04/17 11:59:03;;;;;;;9.38;2.20;;;24.00;51.40;;;;;;5096889;28;20423;-69
2021/04/17 12:01:29;;;;;;;7.55;2.22;;;24.10;51.20;;;;;;5078610;28;20031;-68
2021/04/17 12:03:55;;;;;;;5.38;2.30;;;24.10;51.10;;;;;;5078385;28;20028;-68
2021/04/17 12:06:26;;;;;;;7.93;2.40;;;24.10;51.00;;;;;;5096552;28;20031;-69
2021/04/17 12:08:53;;;;;;;5.60;2.67;;;24.10;51.00;;;;;;5078503;28;20032;-68
2021/04/17 12:11:19;;;;;;;7.07;2.03;;;24.20;51.00;;;;;;5096474;28;20100;-69
2021/04/17 12:13:45;;;;;;;7.90;2.50;;;24.20;51.00;;;;;;5078475;28;20081;-66
2021/04/17 12:16:11;;;;;;;4.78;2.22;;;24.20;51.00;;;;;;5096306;28;20032;-69
2021/04/17 12:18:37;;;;;;;4.80;2.08;;;24.20;50.90;;;;;;5096395;28;20069;-69
2021/04/17 12:21:03;;;;;;;7.07;2.33;;;24.20;50.90;;;;;;5078249;28;20066;-69
2021/04/17 12:23:29;;;;;;;4.45;2.15;;;24.30;50.90;;;;;;5096282;28;20431;-68
2021/04/17 12:25:56;;;;;;;6.57;2.55;;;24.30;50.90;;;;;;5078011;28;20123;-69
2021/04/17 12:28:22;;;;;;;4.93;2.40;;;24.30;50.90;;;;;;5096262;28;20043;-69
2021/04/17 12:30:48;;;;;;;7.60;2.13;;;24.30;50.90;;;;;;5078131;28;20119;-69
2021/04/17 12:33:15;;;;;;;4.40;2.40;;;24.30;50.90;;;;;;5095721;28;20131;-68
2021/04/17 12:35:42;;;;;;;3.03;2.22;;;24.30;50.90;;;;;;5077753;28;20085;-68
2021/04/17 12:38:08;;;;;;;4.97;1.95;;;24.30;50.90;;;;;;5077925;28;20575;-69
2021/04/17 12:40:36;;;;;;;6.68;2.17;;;24.30;50.90;;;;;;5095915;28;20149;-68
2021/04/17 12:43:03;;;;;;;5.57;2.00;;;24.30;50.90;;;;;;5077752;28;20085;-69
2021/04/17 12:45:29;;;;;;;13.20;2.85;;;24.30;50.90;;;;;;5077630;28;20047;-70
2021/04/17 12:47:55;;;;;;;3.38;2.28;;;24.30;50.80;;;;;;5095880;28;20055;-69
2021/04/17 12:50:21;;;;;;;4.22;2.08;;;24.40;50.90;;;;;;5095625;28;20107;-69